Adak, AK

11:23 PM HST on February 10, 2016 (GMT -1000)
Adak

Weather History for PADK - November, 2011

Change the Weather History Date:

Friday, November 18, 2011

  Actual Average Record
Temperature  
Mean Temperature 38 °F -  
Max Temperature 44 °F 41 °F 48 °F (1951)
Min Temperature 33 °F 32 °F 20 °F (1962)
Degree Days  
Heating Degree Days 26    
Moisture  
Dew Point 36 °F    
Average Humidity 83    
Maximum Humidity 100    
Minimum Humidity 65    
Precipitation  
Precipitation 0.00 in - - ()
Sea Level Pressure  
Sea Level Pressure 29.82 in    
Wind  
Wind Speed 20 mph (South)    
Max Wind Speed 45 mph    
Max Gust Speed 70 mph    
Visibility 8 miles    
Events      
Averages and records for this station are not official NWS values.
T = Trace of Precipitation, MM = Missing Value Source: NWS Daily Summary

Daily Weather History Graph

Daily Weather History Graph

Search for Another Location

Airport or City:

Trip Planner

Search our weather history database for the weather conditions in past years. The results will help you decide how hot, cold, wet, or windy it might be!

Date:

Astronomy

Nov. 18, 2011 Rise Set
Actual Time 9:11 AM HST 5:51 PM HST
Civil Twilight 8:33 AM HST 6:29 PM HST
Nautical Twilight 7:52 AM HST 7:10 PM HST
Astronomical Twilight 7:12 AM HST 7:50 PM HST
Moon 12:48 AM HST (11/18) 2:32 PM HST (11/18)
Length of Visible Light 9h 56m
Length of Day
8h 40m
Waning Gibbous, 47% of the Moon is Illuminated
Nov 18
Waning Gibbous
Nov 24
New
Dec 1
First Quarter
Dec 10
Full
Dec 17
Last Quarter

Hourly Weather History & Observations

Time (HST) Temp. Windchill Dew Point Humidity Pressure Visibility Wind Dir Wind Speed Gust Speed Precip Events Conditions
12:16 AM 39.2 °F 30.2 °F 35.6 °F 87% 30.16 in 10.0 mi SW 17.3 mph 25.3 mph N/A   Mostly Cloudy
12:36 AM 39.2 °F 31.6 °F 35.6 °F 87% 30.17 in 10.0 mi SW 12.7 mph - N/A   Mostly Cloudy
12:56 AM 39.2 °F 30.5 °F 35.6 °F 87% 30.18 in 10.0 mi SW 16.1 mph - N/A   Scattered Clouds
1:16 AM 39.2 °F 31.2 °F 33.8 °F 81% 30.18 in 10.0 mi WSW 13.8 mph 24.2 mph N/A   Partly Cloudy
1:36 AM 37.4 °F 29.8 °F 33.8 °F 87% 30.17 in 10.0 mi WSW 11.5 mph - N/A   Clear
1:56 AM 35.6 °F 28.0 °F 33.8 °F 93% 30.18 in 10.0 mi SW 10.4 mph - N/A   Clear
2:16 AM 35.6 °F 27.5 °F 33.8 °F 93% 30.18 in 10.0 mi SW 11.5 mph - N/A   Clear
2:36 AM 37.4 °F 28.9 °F 33.8 °F 87% 30.16 in 10.0 mi WSW 13.8 mph - N/A   Clear
2:56 AM 35.6 °F - 33.8 °F 93% 30.16 in 10.0 mi Calm Calm - N/A   Clear
3:16 AM 37.4 °F 33.8 °F 32.0 °F 81% 30.15 in 10.0 mi SSW 4.6 mph - N/A   Clear
3:36 AM 35.6 °F 32.8 °F 33.8 °F 93% 30.16 in 10.0 mi SW 3.5 mph - N/A   Clear
3:56 AM 37.4 °F 33.8 °F 32.0 °F 81% 30.16 in 10.0 mi SW 4.6 mph - N/A   Clear
4:16 AM 35.6 °F - 32.0 °F 87% 30.14 in 10.0 mi Calm Calm - N/A   Clear
4:36 AM 33.8 °F 29.6 °F 30.2 °F 87% 30.13 in 10.0 mi SSW 4.6 mph - N/A   Clear
4:56 AM 37.4 °F 31.4 °F 35.6 °F 93% 30.12 in 10.0 mi South 8.1 mph - N/A   Clear
5:16 AM 37.4 °F 34.9 °F 35.6 °F 93% 30.10 in 10.0 mi SSE 3.5 mph - N/A   Partly Cloudy
5:36 AM 39.2 °F 34.2 °F 37.4 °F 93% 30.08 in 10.0 mi ENE 6.9 mph - N/A   Mostly Cloudy
5:56 AM 39.2 °F 33.6 °F 37.4 °F 93% 30.08 in 10.0 mi East 8.1 mph - N/A   Mostly Cloudy
6:16 AM 39.2 °F 32.5 °F 37.4 °F 93% 30.06 in 10.0 mi East 10.4 mph - N/A   Partly Cloudy
6:36 AM 41.0 °F 33.5 °F 37.4 °F 87% 30.04 in 10.0 mi ESE 13.8 mph 20.7 mph N/A   Clear
6:56 AM 41.0 °F 32.8 °F 37.4 °F 87% 30.03 in 10.0 mi ESE 16.1 mph - N/A   Clear
7:16 AM 41.0 °F 31.6 °F 35.6 °F 81% 30.01 in 10.0 mi SE 20.7 mph 26.5 mph N/A   Clear
7:36 AM 41.0 °F 30.9 °F 37.4 °F 87% 29.97 in 10.0 mi SE 24.2 mph - N/A   Clear
7:56 AM 41.0 °F 30.7 °F 37.4 °F 87% 29.97 in 10.0 mi SE 25.3 mph 32.2 mph N/A   Clear
8:16 AM 41.0 °F 31.1 °F 35.6 °F 81% 29.97 in 10.0 mi SE 23.0 mph - N/A   Clear
8:36 AM 42.8 °F 34.5 °F 35.6 °F 76% 29.97 in 10.0 mi SE 18.4 mph - N/A   Scattered Clouds
8:56 AM 42.8 °F 33.5 °F 37.4 °F 81% 29.95 in 10.0 mi SE 23.0 mph 36.8 mph N/A   Overcast
9:16 AM 42.8 °F 32.3 °F 37.4 °F 81% 29.92 in 10.0 mi ESE 29.9 mph 38.0 mph N/A   Overcast
9:36 AM 44.6 °F 33.9 °F 37.4 °F 76% 29.89 in 10.0 mi ESE 35.7 mph 46.0 mph N/A   Overcast
9:56 AM 44.6 °F 34.4 °F 37.4 °F 76% 29.86 in 10.0 mi SE 32.2 mph 43.7 mph N/A   Overcast
10:16 AM 44.6 °F 35.3 °F 39.2 °F 81% 29.81 in 10.0 mi SE 26.5 mph 34.5 mph N/A   Overcast
10:36 AM 44.6 °F 34.7 °F 37.4 °F 76% 29.79 in 10.0 mi SE 29.9 mph 40.3 mph N/A   Overcast
10:56 AM 44.6 °F 32.8 °F 39.2 °F 81% 29.76 in 6.0 mi SE 44.9 mph 70.2 mph N/A   Overcast
11:36 AM 42.8 °F 31.3 °F 37.4 °F 81% 29.72 in 1.2 mi SSE 36.8 mph 51.8 mph N/A   Overcast
11:56 AM 41.0 °F 29.1 °F 37.4 °F 87% 29.69 in 1.0 mi SSE 34.5 mph 51.8 mph N/A   Overcast
12:16 PM 42.8 °F 30.7 °F 39.2 °F 87% 29.65 in 1.0 mi SE 41.4 mph 61.0 mph N/A   Overcast
12:36 PM 41.0 °F 28.3 °F 39.2 °F 93% 29.61 in 0.8 mi SE 40.3 mph 56.4 mph N/A   Overcast
12:56 PM 42.8 °F 31.6 °F 41.0 °F 93% 29.58 in 0.5 mi SSE 34.5 mph 51.8 mph N/A   Overcast
1:16 PM 42.8 °F 31.4 °F 41.0 °F 93% 29.54 in 1.0 mi SSE 35.7 mph 48.3 mph N/A   Overcast
1:36 PM 42.8 °F 30.7 °F 42.8 °F 100% 29.51 in 1.2 mi SSE 41.4 mph 51.8 mph N/A   Overcast
1:56 PM 42.8 °F 31.6 °F 42.8 °F 100% 29.50 in 2.5 mi SSE 34.5 mph 46.0 mph N/A   Overcast
2:16 PM 44.6 °F 34.9 °F 44.6 °F 100% 29.49 in 5.0 mi South 28.8 mph 36.8 mph N/A   Overcast
2:36 PM 44.6 °F 34.1 °F 41.0 °F 87% 29.50 in 8.0 mi SW 34.5 mph 41.4 mph N/A   Overcast
2:56 PM 42.8 °F 31.1 °F 37.4 °F 81% 29.49 in 5.0 mi SSW 38.0 mph 43.7 mph N/A   Overcast
3:16 PM 42.8 °F 31.0 °F 35.6 °F 76% 29.49 in 5.0 mi SW 39.1 mph 49.5 mph N/A   Overcast
3:36 PM 42.8 °F 31.8 °F 33.8 °F 70% 29.49 in 7.0 mi SW 33.4 mph 49.5 mph N/A   Overcast
3:56 PM 42.8 °F 30.7 °F 33.8 °F 70% 29.48 in 8.0 mi SW 41.4 mph 57.5 mph N/A   Overcast
4:16 PM 42.8 °F 31.6 °F 33.8 °F 70% 29.48 in 10.0 mi SW 34.5 mph 54.1 mph N/A   Overcast
4:36 PM 42.8 °F 31.8 °F 33.8 °F 70% 29.48 in 10.0 mi SW 33.4 mph 49.5 mph N/A   Mostly Cloudy
4:56 PM 42.8 °F 31.6 °F 33.8 °F 70% 29.48 in 10.0 mi SW 34.5 mph 46.0 mph N/A   Mostly Cloudy
5:16 PM 42.8 °F 31.6 °F 32.0 °F 66% 29.48 in 10.0 mi SW 34.5 mph 59.8 mph N/A   Overcast
5:36 PM 41.0 °F 28.8 °F 32.0 °F 70% 29.47 in 10.0 mi SSW 36.8 mph 49.5 mph N/A   Overcast
5:56 PM 41.0 °F 28.0 °F 30.2 °F 65% 29.47 in 10.0 mi SW 42.6 mph 52.9 mph N/A   Overcast
6:16 PM 41.0 °F 29.8 °F 30.2 °F 65% 29.48 in 10.0 mi SW 29.9 mph 64.4 mph N/A   Overcast
6:36 PM 39.2 °F 25.7 °F 30.2 °F 70% 29.47 in 10.0 mi SW 41.4 mph 62.1 mph N/A   Overcast
6:56 PM 39.2 °F 25.2 °F 30.2 °F 70% 29.47 in 10.0 mi SW 44.9 mph 58.7 mph N/A   Overcast
7:16 PM 39.2 °F 25.2 °F 30.2 °F 70% 29.47 in 10.0 mi SSW 44.9 mph 54.1 mph N/A   Mostly Cloudy
7:36 PM 39.2 °F 25.2 °F 30.2 °F 70% 29.47 in 10.0 mi SW 44.9 mph 63.3 mph N/A   Mostly Cloudy
7:56 PM 37.4 °F 23.3 °F 32.0 °F 81% 29.48 in 5.0 mi SW 40.3 mph 54.1 mph N/A   Overcast
8:16 PM 37.4 °F 23.0 °F 30.2 °F 75% 29.46 in 10.0 mi SW 42.6 mph 58.7 mph N/A   Mostly Cloudy
8:36 PM 39.2 °F 26.1 °F 30.2 °F 70% 29.47 in 10.0 mi SW 38.0 mph 69.0 mph N/A   Overcast
8:56 PM 37.4 °F 22.2 °F 30.2 °F 75% 29.46 in 10.0 mi SW 48.3 mph 76.0 mph N/A   Overcast
9:36 PM 37.4 °F 23.0 °F 30.2 °F 75% 29.48 in 10.0 mi SW 42.6 mph 59.8 mph N/A   Overcast
9:56 PM 39.2 °F 25.7 °F 28.4 °F 65% 29.48 in 10.0 mi SW 41.4 mph 66.7 mph N/A   Mostly Cloudy
10:16 PM 37.4 °F 22.4 °F 28.4 °F 70% 29.48 in 10.0 mi SW 47.2 mph 59.8 mph N/A   Overcast
10:36 PM 37.4 °F 22.0 °F 28.4 °F 70% 29.47 in 10.0 mi SW 50.6 mph 67.9 mph N/A   Overcast
10:56 PM 37.4 °F 22.2 °F 28.4 °F 70% 29.48 in 10.0 mi SW 48.3 mph 66.7 mph N/A   Overcast
11:16 PM 37.4 °F 21.8 °F 28.4 °F 70% 29.49 in 10.0 mi SW 51.8 mph 59.8 mph N/A   Overcast
11:36 PM 37.4 °F 23.3 °F 26.6 °F 65% 29.48 in 10.0 mi SW 40.3 mph 63.3 mph N/A   Overcast
11:56 PM 37.4 °F 22.1 °F 28.4 °F 70% 29.48 in 10.0 mi SW 49.5 mph 64.4 mph N/A   Overcast